Time;durP1;ratioP1;P1;durP2;ratioP2;P2;SDS_P1;SDS_P2;PMS_P1;PMS_P2;Temp;Humidity;BMP_temperature;BMP_pressure;BME280_temperature;BME280_humidity;BME280_pressure;Samples;Min_cycle;Max_cycle;Signal;HPM_P1;HPM_P2
2023/06/22 00:03:38;;;;;;;23.98;17.75;;;;;;;18.14;90.40;98017.38;10455267;28;20047;-51
2023/06/22 00:08:37;;;;;;;27.67;18.17;;;;;;;18.07;91.48;98022.84;10452451;28;20036;-49
2023/06/22 00:13:36;;;;;;;24.70;18.73;;;;;;;18.03;91.84;98018.56;10453144;28;20540;-50
2023/06/22 00:18:35;;;;;;;23.20;17.92;;;;;;;17.96;92.16;98017.88;10453202;28;20055;-49
2023/06/22 00:23:34;;;;;;;26.52;19.10;;;;;;;17.88;91.65;98009.34;10494196;28;20116;-51
2023/06/22 00:28:34;;;;;;;26.00;19.58;;;;;;;17.97;91.48;98012.59;10452239;28;20036;-52
2023/06/22 00:33:33;;;;;;;28.73;21.02;;;;;;;17.85;91.88;98017.31;10452032;28;20111;-52
2023/06/22 00:38:32;;;;;;;27.08;20.38;;;;;;;17.71;93.46;98015.88;10451908;28;20119;-50
2023/06/22 00:43:31;;;;;;;25.55;20.30;;;;;;;17.42;94.19;97973.75;10453844;28;20086;-52
2023/06/22 00:48:30;;;;;;;25.55;20.13;;;;;;;17.59;93.74;98000.44;10452384;28;20060;-52
2023/06/22 00:53:30;;;;;;;24.50;19.48;;;;;;;17.58;93.44;97995.22;10488814;28;20481;-52
2023/06/22 00:58:29;;;;;;;20.65;17.67;;;;;;;17.45;94.47;97987.66;10467072;28;20073;-49
2023/06/22 01:03:28;;;;;;;21.83;17.63;;;;;;;17.48;94.84;98005.09;10452270;28;20047;-50
2023/06/22 01:08:46;;;;;;;21.75;17.48;;;;;;;17.28;95.64;98011.66;10450136;28;20035;-50
2023/06/22 01:13:54;;;;;;;27.65;19.27;;;;;;;17.23;95.81;98020.53;10494765;28;20059;-49
2023/06/22 01:19:00;;;;;;;22.00;18.73;;;;;;;17.19;95.83;98022.41;10452969;28;20064;-51
2023/06/22 01:24:18;;;;;;;28.63;20.48;;;;;;;17.20;95.24;98005.75;10494080;28;20062;-49
2023/06/22 01:29:18;;;;;;;26.00;20.75;;;;;;;17.20;95.05;98013.63;10491969;28;20062;-50
2023/06/22 01:34:18;;;;;;;27.02;20.27;;;;;;;17.24;95.03;98017.91;10489441;28;20055;-52
2023/06/22 01:39:18;;;;;;;24.25;19.55;;;;;;;17.23;94.96;98010.06;10452343;28;20063;-51
2023/06/22 01:44:18;;;;;;;25.90;20.55;;;;;;;17.27;94.93;98011.72;10453902;28;20062;-51
2023/06/22 01:49:17;;;;;;;24.63;20.48;;;;;;;17.20;95.63;98020.63;10453636;28;20498;-51
2023/06/22 01:54:15;;;;;;;22.45;16.65;;;;;;;16.81;98.28;98028.47;10452943;28;20086;-51
2023/06/22 01:59:28;;;;;;;25.80;18.15;;;;;;;16.70;98.75;98023.44;10470669;28;20102;-51
2023/06/22 02:04:34;;;;;;;27.35;19.45;;;;;;;16.84;97.80;98033.66;10491323;28;20047;-51
2023/06/22 02:09:36;;;;;;;24.67;18.70;;;;;;;16.90;97.16;98039.63;10487964;28;20047;-51
2023/06/22 02:14:36;;;;;;;26.42;21.00;;;;;;;16.70;96.53;97989.38;10486613;28;20071;-51
2023/06/22 02:19:40;;;;;;;25.65;20.67;;;;;;;16.96;96.38;98024.66;10448019;28;20238;-48
2023/06/22 02:24:39;;;;;;;31.63;24.33;;;;;;;16.95;96.36;98022.94;10451744;28;20054;-49
2023/06/22 02:29:38;;;;;;;33.25;26.77;;;;;;;16.93;96.36;98015.97;10457038;28;20034;-51
2023/06/22 02:34:37;;;;;;;35.58;27.17;;;;;;;16.91;96.38;98011.63;10495625;27;20497;-52
2023/06/22 02:39:36;;;;;;;35.42;26.67;;;;;;;16.88;96.31;98014.34;10456961;28;20030;-48
2023/06/22 02:44:36;;;;;;;31.17;24.92;;;;;;;16.87;96.19;98013.47;10458393;28;20126;-49
2023/06/22 02:49:35;;;;;;;31.25;22.98;;;;;;;16.76;96.07;97993.63;10456064;28;20059;-51
2023/06/22 02:54:34;;;;;;;31.85;21.92;;;;;;;16.78;96.18;98002.31;10454251;28;20327;-49
2023/06/22 02:59:33;;;;;;;27.13;20.23;;;;;;;16.85;96.06;98019.66;10477744;28;20110;-48
2023/06/22 03:04:32;;;;;;;28.45;20.95;;;;;;;16.85;96.30;98046.72;10457127;28;20107;-51
2023/06/22 03:09:31;;;;;;;27.98;19.17;;;;;;;16.92;96.29;98058.81;10455362;28;20024;-49
2023/06/22 03:14:30;;;;;;;28.88;20.27;;;;;;;17.03;95.98;98053.34;10454460;28;20051;-48
2023/06/22 03:19:31;;;;;;;27.80;19.40;;;;;;;17.07;95.53;98052.34;10455791;28;20282;-49
2023/06/22 03:24:30;;;;;;;28.30;18.90;;;;;;;17.23;95.21;98054.63;10454503;28;20071;-49
2023/06/22 03:29:29;;;;;;;29.20;20.13;;;;;;;17.37;94.98;98070.06;10453607;28;20060;-50
2023/06/22 03:34:28;;;;;;;26.95;21.13;;;;;;;17.48;94.64;98065.44;10454519;28;20027;-50
2023/06/22 03:39:27;;;;;;;24.48;21.08;;;;;;;17.62;94.23;98075.59;10454076;28;20122;-52
2023/06/22 03:44:26;;;;;;;27.50;19.23;;;;;;;17.76;93.81;98071.75;10454505;28;20043;-52
2023/06/22 03:49:24;;;;;;;23.45;17.17;;;;;;;17.84;92.78;98075.94;10454015;28;20044;-50
2023/06/22 03:54:23;;;;;;;26.38;17.02;;;;;;;17.89;92.38;98063.56;10453768;28;20463;-51
2023/06/22 03:59:22;;;;;;;30.60;18.95;;;;;;;17.70;92.38;98032.50;10477257;28;20097;-51
2023/06/22 04:04:21;;;;;;;26.02;18.10;;;;;;;17.88;92.33;98059.22;10457429;28;20055;-52
2023/06/22 04:09:21;;;;;;;28.02;16.85;;;;;;;17.78;92.29;98045.47;10452894;28;20037;-51
2023/06/22 04:14:20;;;;;;;25.90;17.15;;;;;;;17.78;92.44;98048.09;10459222;28;20074;-51
2023/06/22 04:19:19;;;;;;;22.20;16.83;;;;;;;17.42;93.52;98052.44;10452909;28;20036;-51
2023/06/22 04:24:18;;;;;;;24.55;16.95;;;;;;;17.34;93.57;98050.88;10451758;28;20063;-51
2023/06/22 04:29:17;;;;;;;27.52;19.17;;;;;;;17.37;93.65;98051.69;10451451;28;20059;-51
2023/06/22 04:34:17;;;;;;;29.40;19.50;;;;;;;17.47;93.85;98051.47;10453595;28;20036;-51
2023/06/22 04:39:15;;;;;;;31.25;19.25;;;;;;;17.60;94.05;98051.16;10369951;27;20076;-51
2023/06/22 04:44:26;;;;;;;26.27;19.45;;;;;;;17.78;94.03;98055.97;10368975;28;20025;-52
2023/06/22 04:49:32;;;;;;;25.10;18.98;;;;;;;17.95;92.83;98052.91;10367615;28;20052;-49
2023/06/22 04:54:34;;;;;;;27.52;17.98;;;;;;;18.21;92.33;98059.25;10366776;28;20132;-51
2023/06/22 04:59:33;;;;;;;26.65;20.10;;;;;;;18.47;92.02;98069.91;10367373;28;20116;-48
2023/06/22 05:04:32;;;;;;;26.13;20.35;;;;;;;18.78;91.08;98064.69;10367807;28;20023;-49
2023/06/22 05:09:33;;;;;;;24.38;19.77;;;;;;;19.02;89.43;98073.59;10368378;28;20072;-48
2023/06/22 05:14:32;;;;;;;23.77;19.20;;;;;;;19.16;88.91;98067.06;10367720;28;20159;-51
2023/06/22 05:19:33;;;;;;;26.95;21.17;;;;;;;19.39;87.09;98075.13;10367545;28;20051;-51
2023/06/22 05:24:32;;;;;;;27.20;20.80;;;;;;;19.60;87.32;98077.97;10367683;28;20072;-49
2023/06/22 05:29:31;;;;;;;21.10;18.77;;;;;;;19.76;85.50;98084.47;10363186;28;20029;-49
2023/06/22 05:34:30;;;;;;;21.80;18.45;;;;;;;19.87;84.37;98077.09;10366807;28;20033;-50
2023/06/22 05:39:29;;;;;;;23.20;19.02;;;;;;;20.06;83.69;98060.66;10365763;28;20534;-51
2023/06/22 05:44:28;;;;;;;28.17;19.25;;;;;;;20.22;83.86;98076.81;10364140;28;20029;-49
2023/06/22 05:49:32;;;;;;;23.90;19.08;;;;;;;20.18;84.68;98089.22;10365653;28;20039;-51
2023/06/22 05:54:31;;;;;;;24.77;19.63;;;;;;;20.02;84.61;98048.50;10366507;28;20132;-50
2023/06/22 05:59:30;;;;;;;24.13;20.10;;;;;;;20.34;84.32;98049.16;10365873;28;20029;-51
2023/06/22 06:04:29;;;;;;;25.52;19.23;;;;;;;20.73;83.50;98077.66;10365906;28;20044;-51
2023/06/22 06:09:28;;;;;;;26.00;19.08;;;;;;;20.91;83.18;98067.28;10365998;28;20483;-49
2023/06/22 06:14:27;;;;;;;24.70;17.52;;;;;;;21.13;82.94;98040.94;10369262;28;20108;-52
2023/06/22 06:19:26;;;;;;;20.23;17.08;;;;;;;21.64;79.91;98067.09;10360327;28;20376;-51
2023/06/22 06:24:26;;;;;;;21.58;17.30;;;;;;;21.76;78.33;98053.41;10367757;28;20045;-49
2023/06/22 06:29:25;;;;;;;21.27;16.33;;;;;;;21.83;77.22;98043.44;10356805;28;20495;-50
2023/06/22 06:34:24;;;;;;;23.80;16.73;;;;;;;22.11;75.65;98051.97;10355701;28;20528;-49
2023/06/22 06:39:23;;;;;;;20.38;15.63;;;;;;;22.20;74.35;98016.31;10351993;28;20060;-51
2023/06/22 06:44:22;;;;;;;21.13;15.43;;;;;;;22.65;73.73;98031.09;10347925;28;20644;-49
2023/06/22 06:49:21;;;;;;;20.40;15.68;;;;;;;22.95;71.84;98047.38;10366860;28;20048;-52
2023/06/22 06:54:20;;;;;;;17.05;13.95;;;;;;;23.14;71.03;98050.00;10365891;28;20136;-49
2023/06/22 06:59:19;;;;;;;18.45;13.80;;;;;;;23.42;69.82;98040.75;10363854;28;20072;-52
2023/06/22 07:04:18;;;;;;;17.10;13.15;;;;;;;23.74;67.74;98046.28;10366134;28;20056;-49
2023/06/22 07:09:18;;;;;;;16.42;12.48;;;;;;;23.88;66.67;98040.28;10369438;28;20055;-52
2023/06/22 07:14:17;;;;;;;18.58;13.63;;;;;;;24.14;66.51;98031.00;10369839;28;20064;-50
2023/06/22 07:19:24;;;;;;;12.82;11.55;;;;;;;24.35;62.26;98032.56;10370256;28;20036;-50
2023/06/22 07:24:23;;;;;;;13.63;10.80;;;;;;;24.36;62.74;97986.53;10374782;28;20124;-52
2023/06/22 07:29:22;;;;;;;13.52;12.07;;;;;;;24.78;60.84;98043.56;10369550;28;20147;-50
2023/06/22 07:34:21;;;;;;;12.23;10.93;;;;;;;24.83;59.90;98004.34;10372262;28;20604;-52
2023/06/22 07:39:25;;;;;;;12.43;11.13;;;;;;;25.18;59.01;98029.91;10374968;28;20063;-50
2023/06/22 07:44:24;;;;;;;15.75;11.38;;;;;;;25.58;60.71;98031.19;10373682;28;20060;-51
2023/06/22 07:49:23;;;;;;;14.32;11.73;;;;;;;25.95;57.12;98024.56;10370939;28;20921;-49
2023/06/22 07:54:22;;;;;;;13.27;10.80;;;;;;;26.25;55.92;98023.69;10373704;28;20033;-49
2023/06/22 07:59:21;;;;;;;13.38;11.02;;;;;;;26.54;54.21;98018.41;10373820;28;20049;-51
2023/06/22 08:04:20;;;;;;;13.80;9.63;;;;;;;26.67;51.55;98013.19;10369137;28;20446;-51
2023/06/22 08:09:19;;;;;;;13.00;9.48;;;;;;;26.64;51.45;98024.03;10367934;28;20056;-52
2023/06/22 08:14:18;;;;;;;10.98;9.70;;;;;;;26.73;51.47;98026.97;10365738;28;20381;-52
2023/06/22 08:19:17;;;;;;;11.88;10.20;;;;;;;26.87;53.37;98026.13;10368601;28;20126;-48
2023/06/22 08:24:16;;;;;;;14.13;10.00;;;;;;;26.83;52.56;98013.97;10365071;28;20566;-51
2023/06/22 08:29:15;;;;;;;16.00;10.63;;;;;;;26.97;52.36;98016.59;10370400;28;20498;-50
2023/06/22 08:34:14;;;;;;;13.15;9.75;;;;;;;27.32;51.69;98021.47;10368579;28;20029;-51
2023/06/22 08:39:13;;;;;;;10.20;8.63;;;;;;;27.51;49.19;98012.31;10369015;28;20106;-51
2023/06/22 08:44:12;;;;;;;9.77;8.77;;;;;;;27.45;48.83;98010.88;10368124;28;20032;-49
2023/06/22 08:49:11;;;;;;;9.00;8.10;;;;;;;27.48;46.14;98016.03;10368000;28;20075;-50
2023/06/22 08:54:10;;;;;;;9.95;8.85;;;;;;;27.53;47.20;97973.06;10367062;28;20112;-51
2023/06/22 08:59:09;;;;;;;10.00;8.82;;;;;;;27.90;47.94;98010.59;10367990;28;20032;-51
2023/06/22 09:04:09;;;;;;;9.32;8.32;;;;;;;28.20;48.36;98003.19;10366896;28;20059;-49
2023/06/22 09:09:08;;;;;;;11.30;8.95;;;;;;;28.14;46.58;98003.63;10365401;28;20068;-52
2023/06/22 09:14:07;;;;;;;9.23;8.27;;;;;;;28.08;44.86;97966.72;10365206;28;20029;-52
2023/06/22 09:19:06;;;;;;;9.68;8.68;;;;;;;28.46;46.17;97997.88;10366972;28;20675;-51
2023/06/22 09:24:05;;;;;;;10.63;8.65;;;;;;;28.56;45.77;97996.25;10367952;28;20547;-51
2023/06/22 09:29:07;;;;;;;8.10;7.30;;;;;;;28.62;43.08;97987.81;10366397;28;20060;-50
2023/06/22 09:34:06;;;;;;;9.52;8.52;;;;;;;28.73;44.84;97984.38;10353859;28;20567;-50
2023/06/22 09:39:06;;;;;;;10.13;7.57;;;;;;;28.84;43.48;97984.47;10361019;28;20547;-51
2023/06/22 09:44:05;;;;;;;10.95;7.70;;;;;;;28.85;43.04;97985.31;10362167;28;20068;-52
2023/06/22 09:49:04;;;;;;;10.65;8.23;;;;;;;28.94;43.11;97981.16;10364142;28;20370;-50
2023/06/22 09:54:03;;;;;;;10.38;8.82;;;;;;;28.88;44.03;97983.31;10348687;28;20043;-51
2023/06/22 09:59:02;;;;;;;10.30;8.77;;;;;;;28.85;41.72;97977.31;10358584;28;20115;-51
2023/06/22 10:04:02;;;;;;;9.27;8.25;;;;;;;29.06;41.28;97973.09;10362734;28;20118;-52
2023/06/22 10:09:01;;;;;;;12.02;8.45;;;;;;;29.27;42.08;97976.06;10363511;28;20650;-51
2023/06/22 10:14:01;;;;;;;10.43;8.25;;;;;;;29.45;42.00;97965.78;10358357;28;20056;-50
2023/06/22 10:19:00;;;;;;;10.50;9.40;;;;;;;29.73;41.21;97978.91;10362363;28;20132;-51
2023/06/22 10:24:02;;;;;;;9.93;8.05;;;;;;;29.92;42.04;97969.38;10365714;28;20108;-50
2023/06/22 10:29:02;;;;;;;9.30;8.27;;;;;;;30.15;41.30;97968.59;10364810;28;20083;-49
2023/06/22 10:34:01;;;;;;;10.85;8.23;;;;;;;30.48;41.36;97970.47;10364662;28;20624;-51
2023/06/22 10:39:01;;;;;;;9.88;8.48;;;;;;;30.41;39.21;97974.63;10362841;28;20714;-51
2023/06/22 10:44:00;;;;;;;11.50;9.35;;;;;;;30.33;38.69;97962.66;10352217;28;20582;-50
2023/06/22 10:48:59;;;;;;;9.57;8.48;;;;;;;30.51;39.42;97970.22;10366535;28;20059;-49
2023/06/22 10:53:58;;;;;;;12.13;10.93;;;;;;;30.47;37.72;97942.00;10369647;28;20128;-51
2023/06/22 10:58:57;;;;;;;10.23;9.23;;;;;;;30.76;37.93;97961.94;10366581;28;20037;-50
2023/06/22 11:03:56;;;;;;;10.98;8.70;;;;;;;30.50;37.60;97958.66;10369162;28;20057;-50
2023/06/22 11:08:55;;;;;;;11.07;8.50;;;;;;;31.00;38.02;97960.09;10364661;28;20116;-52
2023/06/22 11:13:54;;;;;;;9.68;8.68;;;;;;;30.95;36.23;97957.75;10372734;28;20064;-50
2023/06/22 11:18:53;;;;;;;9.05;8.05;;;;;;;30.90;36.25;97962.66;10364460;28;20143;-51
2023/06/22 11:23:52;;;;;;;9.65;8.55;;;;;;;30.86;37.16;97955.84;10362444;28;20040;-50
2023/06/22 11:28:51;;;;;;;9.85;8.60;;;;;;;31.18;37.55;97954.09;10362611;28;20123;-51
2023/06/22 11:33:50;;;;;;;10.35;8.90;;;;;;;31.38;35.76;97956.94;10365389;28;20028;-51
2023/06/22 11:38:49;;;;;;;12.27;8.85;;;;;;;31.54;40.58;97960.06;10368661;28;20508;-51
2023/06/22 11:43:48;;;;;;;10.80;8.43;;;;;;;31.61;39.97;97951.53;10375131;28;20037;-51
2023/06/22 11:48:47;;;;;;;10.05;9.05;;;;;;;31.74;39.41;97976.34;10370810;28;20112;-49
2023/06/22 11:53:46;;;;;;;10.95;9.32;;;;;;;31.64;39.71;97967.34;10374037;28;20033;-51
2023/06/22 11:58:45;;;;;;;9.68;8.63;;;;;;;31.66;39.38;97968.06;10353915;28;20156;-51
2023/06/22 12:03:44;;;;;;;11.00;8.63;;;;;;;31.63;41.16;97962.97;10368816;28;20112;-51
2023/06/22 12:08:43;;;;;;;13.95;9.65;;;;;;;31.80;41.13;97968.63;10373152;28;20040;-51
2023/06/22 12:13:42;;;;;;;12.75;9.10;;;;;;;31.83;40.92;97959.47;10362130;28;20029;-52
2023/06/22 12:18:41;;;;;;;11.18;9.13;;;;;;;31.94;40.77;97956.72;10372286;28;20076;-52
2023/06/22 12:23:40;;;;;;;10.07;9.07;;;;;;;31.59;40.63;97952.53;10372621;28;20021;-52
2023/06/22 12:28:39;;;;;;;10.23;9.23;;;;;;;31.47;41.61;97961.53;10372791;28;20068;-49
2023/06/22 12:33:38;;;;;;;13.38;9.13;;;;;;;31.15;42.58;97940.09;10368154;28;20031;-51
2023/06/22 12:38:37;;;;;;;12.63;9.75;;;;;;;31.31;42.09;97947.69;10368482;28;20508;-51
2023/06/22 12:43:35;;;;;;;10.70;9.65;;;;;;;31.47;43.03;97953.50;10364808;28;20021;-51
2023/06/22 12:48:41;;;;;;;10.52;9.25;;;;;;;31.24;42.27;97935.78;10368277;28;20123;-52
2023/06/22 12:53:40;;;;;;;10.35;9.13;;;;;;;31.72;42.45;97930.84;10369242;28;20071;-49
2023/06/22 12:58:39;;;;;;;11.50;9.40;;;;;;;31.96;41.48;97933.25;10367504;28;20037;-50
2023/06/22 13:03:38;;;;;;;10.57;9.27;;;;;;;31.46;41.39;97943.75;10368001;28;20033;-51
2023/06/22 13:08:37;;;;;;;10.77;9.63;;;;;;;31.56;42.43;97936.66;10366264;28;20056;-51
2023/06/22 13:13:36;;;;;;;10.18;9.07;;;;;;;31.29;42.21;97955.06;10367424;28;20078;-50
2023/06/22 13:18:35;;;;;;;10.60;9.55;;;;;;;31.20;42.05;97947.75;10366303;28;20156;-52
2023/06/22 13:23:35;;;;;;;11.82;9.52;;;;;;;31.19;41.37;97949.56;10366587;28;20123;-49
2023/06/22 13:28:33;;;;;;;10.43;9.32;;;;;;;31.29;41.65;97952.38;10366144;28;20076;-52
2023/06/22 13:33:32;;;;;;;11.32;9.80;;;;;;;31.43;42.50;97956.56;10366569;28;20124;-52
2023/06/22 13:38:32;;;;;;;10.77;9.68;;;;;;;31.42;42.26;97944.13;10365917;28;20128;-50
2023/06/22 13:43:31;;;;;;;10.68;9.63;;;;;;;31.33;42.08;97937.69;10366942;28;20049;-51
2023/06/22 13:48:30;;;;;;;13.35;10.15;;;;;;;31.08;42.39;97949.63;10366198;28;20067;-50
2023/06/22 13:53:29;;;;;;;10.25;9.25;;;;;;;30.99;40.96;97950.38;10366086;28;20069;-49
2023/06/22 13:58:28;;;;;;;10.48;9.27;;;;;;;31.23;42.10;97942.13;10365518;28;20035;-50
2023/06/22 14:03:27;;;;;;;11.55;9.73;;;;;;;31.70;41.31;97931.97;10365968;28;20115;-49
2023/06/22 14:08:26;;;;;;;11.13;9.93;;;;;;;32.12;42.03;97926.63;10363908;28;20029;-51
2023/06/22 14:13:25;;;;;;;10.63;9.63;;;;;;;32.68;40.30;97909.22;10366535;28;20556;-50
2023/06/22 14:18:24;;;;;;;12.60;11.30;;;;;;;32.70;40.16;97908.09;10366942;28;20526;-52
2023/06/22 14:23:23;;;;;;;11.40;10.30;;;;;;;32.34;40.51;97904.09;10366545;28;20495;-49
2023/06/22 14:28:22;;;;;;;12.63;10.55;;;;;;;31.93;41.67;97912.06;10368300;28;20506;-50
2023/06/22 14:33:21;;;;;;;11.93;10.73;;;;;;;31.69;40.69;97904.28;10368153;28;20029;-50
2023/06/22 14:38:21;;;;;;;12.30;11.10;;;;;;;31.44;42.67;97910.84;10369240;28;20144;-49
2023/06/22 14:43:20;;;;;;;12.70;11.50;;;;;;;31.27;44.43;97911.41;10369032;28;20067;-49
2023/06/22 14:48:19;;;;;;;15.52;11.18;;;;;;;31.20;44.23;97902.19;10368654;28;20032;-50
2023/06/22 14:53:17;;;;;;;13.70;11.73;;;;;;;31.25;44.60;97905.34;10368124;28;20117;-48
2023/06/22 14:58:16;;;;;;;12.95;11.65;;;;;;;31.21;44.63;97899.34;10367753;28;20116;-49
2023/06/22 15:03:21;;;;;;;13.27;11.85;;;;;;;31.32;44.41;97885.06;10367113;28;20033;-50
2023/06/22 15:08:20;;;;;;;12.20;10.85;;;;;;;31.45;43.86;97893.78;10368106;28;20077;-51
2023/06/22 15:13:20;;;;;;;12.48;11.18;;;;;;;31.56;43.58;97871.44;10363955;28;20123;-50
2023/06/22 15:18:19;;;;;;;12.75;10.88;;;;;;;31.46;40.65;97879.38;10364039;28;20196;-50
2023/06/22 15:23:19;;;;;;;12.23;10.93;;;;;;;31.29;41.58;97874.63;10363408;28;20151;-51
2023/06/22 15:28:18;;;;;;;11.85;10.68;;;;;;;31.07;40.67;97889.78;10363983;28;20056;-54
2023/06/22 15:33:17;;;;;;;12.43;10.68;;;;;;;31.24;40.57;97880.34;10366076;28;20144;-52
2023/06/22 15:38:16;;;;;;;12.18;10.98;;;;;;;30.87;40.07;97837.81;10371003;28;20480;-50
2023/06/22 15:43:15;;;;;;;11.80;10.63;;;;;;;30.70;40.94;97871.38;10371577;28;20569;-51
2023/06/22 15:48:13;;;;;;;11.98;10.65;;;;;;;30.59;41.61;97874.06;10369947;28;20090;-50
2023/06/22 15:53:13;;;;;;;15.50;11.27;;;;;;;30.44;42.88;97873.44;10369640;28;20428;-50
2023/06/22 15:58:12;;;;;;;13.30;10.90;;;;;;;30.68;43.50;97876.00;10370401;28;20472;-52
2023/06/22 16:03:11;;;;;;;13.23;11.85;;;;;;;30.53;44.11;97872.72;10367659;28;20176;-51
2023/06/22 16:08:13;;;;;;;16.30;12.45;;;;;;;30.45;44.54;97879.69;10369900;28;20033;-49
2023/06/22 16:13:12;;;;;;;13.25;11.60;;;;;;;30.22;43.28;97884.16;10369241;28;20120;-52
2023/06/22 16:18:11;;;;;;;12.10;10.90;;;;;;;30.06;43.17;97895.22;10368400;28;20132;-52
2023/06/22 16:23:10;;;;;;;12.77;11.48;;;;;;;29.90;44.82;97896.41;10368897;28;20032;-52
2023/06/22 16:28:09;;;;;;;12.05;10.80;;;;;;;29.90;45.61;97893.72;10369301;28;20099;-50
2023/06/22 16:33:08;;;;;;;13.38;10.93;;;;;;;29.73;47.37;97899.50;10368272;28;20052;-50
2023/06/22 16:38:07;;;;;;;14.75;12.23;;;;;;;29.84;47.30;97907.59;10369547;28;20471;-48
2023/06/22 16:43:06;;;;;;;14.50;10.95;;;;;;;29.61;47.56;97897.78;10368664;28;20021;-50
2023/06/22 16:48:05;;;;;;;13.93;11.43;;;;;;;29.47;47.84;97905.03;10367966;28;20074;-52
2023/06/22 16:53:04;;;;;;;14.93;12.38;;;;;;;29.26;48.63;97898.66;10368614;28;20107;-51
2023/06/22 16:58:03;;;;;;;14.98;12.20;;;;;;;29.28;48.17;97892.22;10368361;28;20028;-51
2023/06/22 17:03:05;;;;;;;12.48;11.18;;;;;;;29.21;48.95;97906.13;10366926;28;20060;-48
2023/06/22 17:08:07;;;;;;;14.43;12.35;;;;;;;29.29;48.44;97901.06;10368317;28;20076;-51
2023/06/22 17:13:07;;;;;;;13.10;11.80;;;;;;;29.14;48.99;97907.56;10323005;28;20527;-50
2023/06/22 17:18:07;;;;;;;13.48;12.07;;;;;;;29.00;49.24;97909.41;10401207;28;20546;-51
2023/06/22 17:23:06;;;;;;;14.75;13.15;;;;;;;29.06;50.87;97903.63;10408157;28;20060;-48
2023/06/22 17:28:05;;;;;;;18.45;13.45;;;;;;;28.91;51.69;97912.75;10409226;28;20032;-49
2023/06/22 17:33:08;;;;;;;16.20;13.38;;;;;;;28.70;52.41;97907.19;10407028;28;20483;-51
2023/06/22 17:38:07;;;;;;;18.85;12.98;;;;;;;28.39;52.57;97911.19;10386396;28;20406;-51
2023/06/22 17:43:09;;;;;;;19.42;13.45;;;;;;;28.18;53.41;97911.72;10373721;28;20029;-51
2023/06/22 17:48:09;;;;;;;16.83;13.07;;;;;;;28.02;54.09;97913.72;10373590;28;20092;-51
2023/06/22 17:53:12;;;;;;;17.63;13.93;;;;;;;27.83;55.03;97912.34;10372888;28;20083;-50
2023/06/22 17:58:11;;;;;;;15.40;13.30;;;;;;;27.57;55.24;97914.13;10395611;28;20503;-52
2023/06/22 18:03:12;;;;;;;18.42;14.48;;;;;;;27.39;56.68;97915.31;10374843;28;20068;-50
2023/06/22 18:08:13;;;;;;;17.33;14.70;;;;;;;27.12;58.11;97918.00;10373628;28;20075;-53
2023/06/22 18:13:14;;;;;;;19.20;14.57;;;;;;;26.81;59.23;97922.63;10368148;28;20128;-51
2023/06/22 18:18:14;;;;;;;16.88;14.60;;;;;;;26.55;60.02;97924.31;10388910;28;20155;-51
2023/06/22 18:23:14;;;;;;;17.77;13.98;;;;;;;26.33;60.78;97930.13;10384311;28;20077;-51
2023/06/22 18:28:14;;;;;;;19.77;15.15;;;;;;;26.07;61.50;97939.69;10368588;28;20526;-52
2023/06/22 18:33:13;;;;;;;16.67;14.75;;;;;;;25.84;62.14;97949.91;10369304;28;20112;-52
2023/06/22 18:38:13;;;;;;;16.42;14.60;;;;;;;25.54;63.27;97947.28;10371054;28;20039;-50
2023/06/22 18:43:20;;;;;;;17.35;14.52;;;;;;;25.32;64.59;97964.44;10403873;28;20115;-49
2023/06/22 18:48:24;;;;;;;21.60;15.85;;;;;;;25.13;65.54;97960.25;10383252;28;20484;-51
2023/06/22 18:53:23;;;;;;;16.98;15.18;;;;;;;24.98;66.80;97964.63;10368774;28;20127;-51
2023/06/22 18:58:25;;;;;;;20.45;15.07;;;;;;;24.73;67.97;97965.09;10380680;28;20083;-53
2023/06/22 19:03:34;;;;;;;17.63;15.75;;;;;;;24.56;69.00;97969.53;10403866;28;20067;-51
2023/06/22 19:09:11;;;;;;;19.95;14.77;;;;;;;24.41;69.40;97976.53;10405329;28;20111;-48
2023/06/22 19:14:19;;;;;;;20.95;15.25;;;;;;;24.18;70.25;97967.16;10410767;28;20144;-51
2023/06/22 19:19:18;;;;;;;17.10;15.30;;;;;;;24.06;70.71;97971.28;10386593;28;20569;-51
2023/06/22 19:24:31;;;;;;;17.83;15.65;;;;;;;23.93;71.62;97967.53;10401113;28;20491;-51
2023/06/22 19:29:31;;;;;;;17.25;15.55;;;;;;;23.79;72.23;97978.00;10381577;28;20143;-49
2023/06/22 19:34:34;;;;;;;16.92;14.43;;;;;;;23.40;72.57;97945.47;10376072;28;20079;-51
2023/06/22 19:39:36;;;;;;;22.23;17.17;;;;;;;23.44;74.23;97970.88;10381220;28;20072;-51
2023/06/22 19:44:35;;;;;;;23.27;18.92;;;;;;;22.44;77.23;97837.22;10374231;28;20064;-52
2023/06/22 19:49:34;;;;;;;25.92;21.02;;;;;;;23.05;78.37;97976.31;10375348;28;20033;-50
2023/06/22 19:54:33;;;;;;;26.95;24.05;;;;;;;22.91;79.26;97974.34;10409521;28;20132;-52
2023/06/22 19:59:32;;;;;;;25.13;21.17;;;;;;;22.77;80.80;97966.19;10384129;28;20036;-49
2023/06/22 20:04:32;;;;;;;25.48;20.42;;;;;;;22.66;80.78;97966.66;10373873;28;20116;-51
2023/06/22 20:09:31;;;;;;;22.58;18.48;;;;;;;22.64;80.47;97962.38;10375387;28;20079;-50
2023/06/22 20:14:34;;;;;;;22.13;18.98;;;;;;;22.56;80.34;97953.00;10373775;28;20511;-50
2023/06/22 20:19:40;;;;;;;21.23;18.80;;;;;;;22.49;81.41;97959.50;10374341;28;20168;-49
2023/06/22 20:24:39;;;;;;;22.38;18.42;;;;;;;22.47;81.40;97958.72;10380094;28;20071;-50
2023/06/22 20:29:39;;;;;;;20.08;17.33;;;;;;;22.42;81.50;97958.06;10371539;28;20055;-51
2023/06/22 20:34:47;;;;;;;24.80;19.25;;;;;;;22.35;81.87;97969.84;10372847;28;20595;-50
2023/06/22 20:39:46;;;;;;;21.80;19.48;;;;;;;22.34;81.87;97968.13;10406904;28;20111;-49
2023/06/22 20:44:49;;;;;;;27.67;21.73;;;;;;;22.30;82.91;97972.72;10374104;28;20035;-48
2023/06/22 20:49:48;;;;;;;26.40;21.45;;;;;;;22.22;83.15;97979.25;10372127;28;20069;-49
2023/06/22 20:54:47;;;;;;;23.27;20.23;;;;;;;22.10;83.48;97968.28;10372192;28;20478;-51
2023/06/22 20:59:46;;;;;;;24.10;20.35;;;;;;;22.05;83.71;97945.66;10369284;28;20810;-52
2023/06/22 21:04:48;;;;;;;22.85;19.75;;;;;;;22.07;84.12;97954.38;10373135;28;20476;-52
2023/06/22 21:09:47;;;;;;;23.67;19.40;;;;;;;22.01;83.92;97946.69;10371192;28;20087;-49
2023/06/22 21:14:46;;;;;;;28.48;18.63;;;;;;;21.97;83.70;97948.63;10404520;28;20032;-49
2023/06/22 21:19:45;;;;;;;23.08;20.35;;;;;;;21.82;84.00;97944.84;10377771;28;20468;-50
2023/06/22 21:24:46;;;;;;;31.05;24.55;;;;;;;21.53;87.14;97949.59;10400063;28;20119;-51
2023/06/22 21:29:45;;;;;;;24.10;19.45;;;;;;;21.31;88.79;97948.75;10404359;28;20499;-51
2023/06/22 21:34:44;;;;;;;24.05;20.80;;;;;;;21.27;88.77;97952.47;10404530;28;20571;-52
2023/06/22 21:39:45;;;;;;;25.50;21.65;;;;;;;21.25;88.30;97949.03;10404855;28;20578;-50
2023/06/22 21:44:47;;;;;;;26.05;22.38;;;;;;;21.17;88.51;97940.50;10397696;28;20079;-52
2023/06/22 21:49:46;;;;;;;27.52;22.83;;;;;;;21.12;88.89;97932.78;10376196;28;20075;-49
2023/06/22 21:54:45;;;;;;;25.70;21.10;;;;;;;21.07;89.12;97916.28;10376867;28;20112;-52
2023/06/22 21:59:44;;;;;;;33.88;20.90;;;;;;;21.04;88.87;97925.19;10395137;28;20040;-49
2023/06/22 22:04:43;;;;;;;22.83;19.95;;;;;;;20.97;88.79;97923.72;10376080;28;20031;-50
2023/06/22 22:09:42;;;;;;;21.83;19.08;;;;;;;20.90;88.91;97931.03;10394979;28;20042;-49
2023/06/22 22:14:41;;;;;;;24.85;19.80;;;;;;;20.68;91.16;97927.50;10378121;28;20044;-48
2023/06/22 22:19:40;;;;;;;23.25;20.55;;;;;;;20.61;92.03;97931.28;10371264;28;20351;-52
2023/06/22 22:24:39;;;;;;;26.83;21.10;;;;;;;20.47;93.29;97924.78;10397141;28;20071;-50
2023/06/22 22:29:38;;;;;;;24.92;22.27;;;;;;;20.52;92.76;97922.00;10382320;28;20112;-52
2023/06/22 22:34:38;;;;;;;25.67;22.90;;;;;;;20.47;92.82;97935.34;10380561;28;20147;-52
2023/06/22 22:39:38;;;;;;;31.17;23.77;;;;;;;20.48;92.51;97925.66;10396171;28;20072;-49
2023/06/22 22:44:37;;;;;;;28.17;24.35;;;;;;;20.42;92.32;97918.84;10389331;28;20060;-50
2023/06/22 22:49:36;;;;;;;28.02;24.23;;;;;;;20.20;92.56;97902.94;10404503;28;20064;-52